Buoy 46762

sailwx.info

Track history (hours):
 
Tides and Currents Weather Stations Pressure Air Temp Water Temp Dewpoint Dewpoint Depression Visibility Wind Speed Wind Dir Waves Ship Positions

Drifting buoy 46762

Last reported at 2014-Sep-21 02:00 UTC. Time now 2014-Sep-21 04:09 UTC.
Position N 54°24' W 141°45'.

Barometer 1005.8 mb
Water temperature 14.4 ° C

Date/timePositionNaut miles runAvg speedWind from/ knotsBaromVisibWave heightAir tempDewpointWater temp
2014-Sep-21 02:00N 54°24' W 141°45'1 0.9 1005.8 14.4
2014-Sep-21 01:00N 54°24' W 141°44'1 0.8 1006.6 14.4
2014-Sep-21 00:00N 54°25' W 141°43'0 0.3 1006.7 14.4
2014-Sep-20 23:00N 54°25' W 141°43'2 2.0 1006.7 14.4
2014-Sep-20 22:00N 54°27' W 141°42'0 0.0 1006.4 14.3
2014-Sep-20 21:00N 54°27' W 141°42'1 1.2 1006.4 14.3
2014-Sep-20 20:00N 54°27' W 141°44'1 0.6 1006.6 14.2
2014-Sep-20 18:00N 54°26' W 141°45'0 0.0 1005.3 14.2
2014-Sep-20 17:00N 54°26' W 141°45'0 0.4 1005.1 14.2
2014-Sep-20 16:00N 54°26' W 141°45'0 0.3 1004.5 14.2
2014-Sep-20 15:00N 54°26' W 141°45'0 0.0 1004.0 14.2
2014-Sep-20 14:00N 54°26' W 141°45'0 0.4 1003.6 14.2
2014-Sep-20 13:00N 54°25' W 141°45'4 1.9 1003.3 14.2
2014-Sep-20 11:00N 54°29' W 141°42'0 0.0 1002.4 14.2
2014-Sep-20 10:00N 54°29' W 141°42'0 0.0 1002.2 14.2
2014-Sep-20 09:00N 54°29' W 141°42'0 0.0 1002.1 14.2
2014-Sep-20 08:00N 54°29' W 141°42'0 0.0 1002.0 14.2
2014-Sep-20 07:00N 54°29' W 141°42'1 1.3 1003.0 14.2
2014-Sep-20 06:00N 54°29' W 141°40'0 0.0 1003.3 14.2
2014-Sep-20 05:00N 54°29' W 141°40'2 2.3 1003.6 14.2
2014-Sep-20 04:00N 54°29' W 141°44'2 1.9 1004.4 14.2
2014-Sep-20 03:00N 54°28' W 141°42'0 0.0 1004.8 14.2
2014-Sep-20 02:00N 54°28' W 141°42'2 2.0 1005.1 14.2
2014-Sep-20 01:00N 54°27' W 141°44'2 1.7 1005.5 14.2
2014-Sep-20 00:00N 54°27' W 141°42'0 0.0 1005.6 14.2
2014-Sep-19 23:00N 54°27' W 141°42'1 0.8 1005.7 14.2
2014-Sep-19 22:00N 54°27' W 141°40'0 0.1 1005.8 14.3
2014-Sep-19 20:00N 54°27' W 141°40'1 1.5 1005.4 14.2
2014-Sep-19 19:00N 54°28' W 141°39'2 2.4 1004.5 14.2
2014-Sep-19 18:00N 54°30' W 141°41'0 0.0 1003.5 14.2
2014-Sep-19 17:00N 54°30' W 141°41'0 0.0 1003.0 14.2
2014-Sep-19 16:00N 54°30' W 141°41'1 1.3 1002.2 14.2
2014-Sep-19 15:00N 54°32' W 141°41'2 2.5 1001.1 14.2
2014-Sep-19 14:00N 54°30' W 141°43'1 0.8 1000.2 14.2
2014-Sep-19 13:00N 54°29' W 141°44'0 0.0 999.5 14.2
2014-Sep-19 12:00N 54°29' W 141°44'1 1.0 998.5 14.2
2014-Sep-19 11:00N 54°30' W 141°43'0 0.0 997.5 14.2
2014-Sep-19 08:00N 54°30' W 141°43'1 0.8 993.9 14.3
2014-Sep-19 07:00N 54°30' W 141°42'1 1.0 992.8 14.3
2014-Sep-19 06:00N 54°31' W 141°42'0 0.0 991.3 14.4
2014-Sep-19 05:00N 54°31' W 141°42'1 1.4 990.2 14.4
2014-Sep-19 04:00N 54°33' W 141°42'0 0.0 988.7 14.4
2014-Sep-19 03:00N 54°33' W 141°42'2 1.0 987.5 14.4
2014-Sep-19 01:00N 54°33' W 141°45'1 0.6 984.0 14.5
2014-Sep-19 00:00N 54°34' W 141°44'1 1.0 982.6 14.5
2014-Sep-18 23:00N 54°34' W 141°43'1 1.0 981.1 14.6
2014-Sep-18 22:00N 54°35' W 141°44'0 0.0 980.3 14.7
2014-Sep-18 21:00N 54°35' W 141°44'2 1.7 979.8 14.7
2014-Sep-18 20:00N 54°36' W 141°43'3 2.8 979.2 14.7
2014-Sep-18 19:00N 54°36' W 141°48'0 0.0 978.1 14.7
2014-Sep-18 18:00N 54°36' W 141°48'0 0.0 978.2 14.6
2014-Sep-18 17:00N 54°36' W 141°48'0 0.0 979.2 14.6
2014-Sep-18 16:00N 54°36' W 141°48'1 1.2 980.0 14.6
2014-Sep-18 15:00N 54°37' W 141°48'3 1.4 980.9 14.6
2014-Sep-18 13:00N 54°35' W 141°47'0 0.0 982.6 14.6
2014-Sep-18 12:00N 54°35' W 141°47'3 3.2 983.9 14.6
2014-Sep-18 11:00N 54°37' W 141°44'0 0.0 984.8 14.6
2014-Sep-18 09:00N 54°37' W 141°44'0 0.0 987.2 14.6
2014-Sep-18 08:00N 54°37' W 141°44'0 0.0 988.2 14.6
2014-Sep-18 07:00N 54°37' W 141°44'0 0.0 989.2 14.6
2014-Sep-18 06:00N 54°37' W 141°44'0 0.0 989.9 14.6
2014-Sep-18 05:00N 54°37' W 141°44'1 1.3 990.8 14.6
2014-Sep-18 04:00N 54°37' W 141°46'1 0.9 991.3 14.6
2014-Sep-18 03:00N 54°37' W 141°45'0 0.0 992.0 14.6
2014-Sep-18 02:00N 54°37' W 141°45'2 1.9 993.0 14.6
2014-Sep-18 01:00N 54°35' W 141°46'0 0.0 994.3 14.6
2014-Sep-18 00:00N 54°35' W 141°46'0 0.2 995.8 14.6
2014-Sep-17 23:00N 54°35' W 141°46'0 0.3 997.2 14.6
2014-Sep-17 22:00N 54°35' W 141°46'0 0.0 998.4 14.6
2014-Sep-17 21:00N 54°35' W 141°46'0 0.0 999.5 14.6
2014-Sep-17 20:00N 54°35' W 141°46'0 0.3 1000.5 14.6
2014-Sep-17 19:00N 54°35' W 141°45'0 0.0 1001.3 14.6
2014-Sep-17 18:00N 54°35' W 141°45'1 0.7 1002.0 14.6
2014-Sep-17 17:00N 54°36' W 141°46'0 0.0 1002.9 14.6
2014-Sep-17 16:00N 54°36' W 141°46'2 2.3 1003.6 14.6
2014-Sep-17 15:00N 54°37' W 141°50'0 0.0 1004.0 14.7
2014-Sep-17 14:00N 54°37' W 141°50'1 1.4 1004.7 14.7
2014-Sep-17 13:00N 54°36' W 141°48'0 0.0 1005.7 14.7
2014-Sep-17 12:00N 54°36' W 141°48'0 0.4 1006.9 14.7
2014-Sep-17 11:00N 54°35' W 141°48'0 0.0 1008.0 14.8
2014-Sep-17 10:00N 54°35' W 141°48'0 0.0 1008.8 14.8
2014-Sep-17 08:00N 54°35' W 141°48'1 1.4 1010.1 14.9
2014-Sep-17 07:00N 54°35' W 141°46'1 0.7 1010.7 14.9
2014-Sep-17 06:00N 54°35' W 141°47'3 1.3 1011.2 15.0
2014-Sep-17 04:00N 54°36' W 141°43'4 3.7 1011.8 15.1
2014-Sep-17 03:00N 54°37' W 141°49'1 0.7 1012.3 15.2
2014-Sep-17 01:00N 54°35' W 141°50'1 0.9 1013.2 15.2
2014-Sep-17 00:00N 54°36' W 141°49'0 0.3 1013.7 15.2
2014-Sep-16 23:00N 54°36' W 141°49'1 0.8 1014.0 15.1
2014-Sep-16 22:00N 54°36' W 141°50'1 1.5 1014.4 15.0
2014-Sep-16 21:00N 54°37' W 141°49'0 0.0 1014.5 14.9
2014-Sep-16 20:00N 54°37' W 141°49'2 1.7 1014.3 14.8
2014-Sep-16 19:00N 54°36' W 141°47'0 0.0 1014.1 14.7
2014-Sep-16 18:00N 54°36' W 141°47'0 0.3 1014.0 14.7
2014-Sep-16 17:00N 54°36' W 141°47'0 0.0 1013.8 14.7
2014-Sep-16 16:00N 54°36' W 141°47'1 1.2 1013.7 14.6
2014-Sep-16 15:00N 54°37' W 141°47'1 0.8 1013.7 14.6
2014-Sep-16 14:00N 54°38' W 141°49'1 0.7 1013.7 14.6
2014-Sep-16 13:00N 54°38' W 141°49'2 1.7 1013.7 14.6
2014-Sep-16 12:00N 54°38' W 141°47'0 0.0 1013.7 14.6
2014-Sep-16 10:00N 54°38' W 141°47'0 0.0 1014.0 14.7
2014-Sep-16 07:00N 54°38' W 141°47'1 1.1 1013.2 14.8
2014-Sep-16 06:00N 54°38' W 141°48'1 0.7 1013.2 14.8
2014-Sep-16 05:00N 54°39' W 141°47'1 1.1 1013.0 14.8
2014-Sep-16 04:00N 54°39' W 141°49'0 0.1 1012.6 14.8
2014-Sep-16 03:00N 54°39' W 141°49'0 0.3 1012.4 14.8
2014-Sep-16 02:00N 54°39' W 141°50'1 0.5 1012.3 14.9
2014-Sep-16 00:00N 54°38' W 141°51'1 1.3 1012.0 14.9
2014-Sep-15 23:00N 54°38' W 141°49'1 0.5 1012.0 14.8
2014-Sep-15 22:00N 54°38' W 141°48'2 0.7 1012.3 14.9
2014-Sep-15 19:00N 54°40' W 141°49'0 0.0 1011.6 14.6
2014-Sep-15 18:00N 54°40' W 141°49'0 0.2 1011.2 14.6
2014-Sep-15 16:00N 54°40' W 141°49'0 0.0 1010.9 14.5
2014-Sep-15 15:00N 54°40' W 141°49'1 1.4 1010.7 14.5
2014-Sep-15 14:00N 54°40' W 141°51'1 0.7 1010.6 14.5
2014-Sep-15 13:00N 54°40' W 141°51'1 0.8 1010.4 14.6
2014-Sep-15 12:00N 54°39' W 141°51'0 0.0 1010.7 14.5
2014-Sep-15 10:00N 54°39' W 141°51'3 0.9 1011.0 14.6
2014-Sep-15 07:00N 54°38' W 141°46'2 2.4 1010.4 14.6
2014-Sep-15 06:00N 54°40' W 141°49'1 0.5 1010.3 14.6
2014-Sep-15 04:00N 54°41' W 141°49'2 1.0 1009.3 14.6
2014-Sep-15 02:00N 54°41' W 141°52'1 0.4 1008.4 14.7
2014-Sep-15 00:00N 54°40' W 141°53'0 0.5 1009.0 14.6
2014-Sep-14 23:00N 54°40' W 141°53'0 0.0 1009.7 14.6
2014-Sep-14 22:00N 54°40' W 141°52'0 0.0 1010.6 14.6
2014-Sep-14 21:00N 54°40' W 141°52'2 1.7 1011.1 14.6
2014-Sep-14 20:00N 54°40' W 141°50'1 0.5 1011.1 14.6
2014-Sep-14 18:00N 54°40' W 141°51'1 0.6 1011.4 14.6
2014-Sep-14 16:00N 54°41' W 141°51'1 1.0 1011.6 14.6
2014-Sep-14 15:00N 54°41' W 141°53'1 1.3 1011.4 14.6
2014-Sep-14 14:00N 54°41' W 141°51'1 1.1 1011.5 14.6
2014-Sep-14 13:00N 54°39' W 141°51'3 2.7 1011.8 14.6
2014-Sep-14 12:00N 54°40' W 141°47'0 0.0 1012.2 14.6
2014-Sep-14 11:00N 54°40' W 141°47'3 3.1 1012.3 14.6
2014-Sep-14 10:00N 54°41' W 141°52'0 0.0 1012.7 14.6
2014-Sep-14 08:00N 54°41' W 141°52'0 0.0 1012.9 14.6
2014-Sep-14 07:00N 54°41' W 141°52'1 0.7 1013.1 14.6
2014-Sep-14 06:00N 54°41' W 141°53'2 2.3 1013.4 14.6
2014-Sep-14 05:00N 54°40' W 141°50'0 0.0 1013.3 14.6
2014-Sep-14 04:00N 54°40' W 141°50'3 2.8 1013.5 14.6
2014-Sep-14 03:00N 54°40' W 141°54'3 3.3 1014.1 14.6
2014-Sep-14 02:00N 54°42' W 141°50'0 0.0 1014.5 14.6
2014-Sep-14 01:00N 54°42' W 141°50'2 2.0 1015.0 14.6
2014-Sep-14 00:00N 54°42' W 141°53'1 0.6 1015.0 14.6
2014-Sep-13 23:00N 54°41' W 141°53'2 1.7 1015.6 14.6
2014-Sep-13 22:00N 54°43' W 141°54'1 1.4 1016.1 14.6
2014-Sep-13 21:00N 54°42' W 141°56'0 0.1 1016.6 14.6
2014-Sep-13 19:00N 54°42' W 141°56'0 0.0 1016.6 14.5
2014-Sep-13 18:00N 54°42' W 141°56'0 0.0 1016.7 14.5
2014-Sep-13 17:00N 54°42' W 141°56'0 0.0 1017.1 14.5
2014-Sep-13 16:00N 54°42' W 141°56'0 0.0 1017.3 14.5
2014-Sep-13 15:00N 54°42' W 141°56'0 0.2 1017.4 14.5
2014-Sep-13 14:00N 54°42' W 141°56'0 0.4 1017.7 14.4
2014-Sep-13 13:00N 54°42' W 141°55'2 0.5 1017.9 14.4
2014-Sep-13 10:00N 54°43' W 141°57'0 0.0 1019.6 14.5
2014-Sep-13 08:00N 54°43' W 141°57'0 0.5 1019.8 14.5
2014-Sep-13 07:00N 54°43' W 141°57'1 0.3 1020.0 14.5
2014-Sep-13 04:00N 54°43' W 141°59'1 0.3 1020.3 14.5
2014-Sep-13 02:00N 54°44' W 141°58'2 1.9 1020.7 14.5
2014-Sep-13 01:00N 54°42' W 141°59'2 1.6 1021.2 14.5
2014-Sep-13 00:00N 54°43' W 141°60'1 0.6 1021.6 14.5
2014-Sep-12 23:00N 54°43' W 141°59'0 0.4 1021.9 14.5
2014-Sep-12 22:00N 54°43' W 141°59'1 1.0 1022.2 14.5
2014-Sep-12 21:00N 54°43' W 141°58'1 0.5 1022.4 14.5
2014-Sep-12 19:00N 54°44' W 141°59'0 0.0 1022.8 14.5
2014-Sep-12 18:00N 54°44' W 141°59'0 0.2 1023.0 14.4
2014-Sep-12 17:00N 54°44' W 141°59'0 0.1 1023.2 14.4
2014-Sep-12 16:00N 54°44' W 141°59'0 0.0 1023.1 14.4
2014-Sep-12 15:00N 54°44' W 141°59'1 0.7 1023.2 14.4
2014-Sep-12 14:00N 54°44' W 141°57'3 2.6 1023.1 14.4
2014-Sep-12 13:00N 54°45' W 142°02'1 1.3 1023.2 14.4
2014-Sep-12 12:00N 54°44' W 141°60'1 0.6 1023.4 14.4
2014-Sep-12 11:00N 54°44' W 142°00'0 0.0 1023.5 14.4
2014-Sep-12 09:00N 54°44' W 142°00'0 0.0 1024.0 14.4
2014-Sep-12 08:00N 54°44' W 142°00'0 0.0 1024.1 14.5
2014-Sep-12 07:00N 54°44' W 142°00'1 0.7 1024.1 14.5
2014-Sep-12 05:00N 54°45' W 142°02'0 0.0 1023.9 14.5
2014-Sep-12 04:00N 54°45' W 142°02'1 0.7 1023.7 14.5
2014-Sep-12 03:00N 54°44' W 142°03'1 0.8 1023.6 14.5
2014-Sep-12 02:00N 54°44' W 142°02'0 0.0 1023.5 14.6
2014-Sep-12 01:00N 54°44' W 142°02'2 1.6 1023.5 14.6
2014-Sep-12 00:00N 54°45' W 142°04'0 0.0 1023.6 14.5
2014-Sep-11 23:00N 54°45' W 142°04'0 0.4 1023.8 14.5
2014-Sep-11 22:00N 54°45' W 142°05'0 0.1 1023.7 14.5
2014-Sep-11 21:00N 54°45' W 142°05'1 1.2 1024.0 14.5
2014-Sep-11 20:00N 54°45' W 142°03'1 1.4 1024.8 14.4
2014-Sep-11 19:00N 54°45' W 142°05'0 0.0 1024.6 14.4
2014-Sep-11 18:00N 54°45' W 142°05'0 0.2 1024.6 14.4
2014-Sep-11 16:00N 54°45' W 142°06'0 0.2 1024.5 14.4
2014-Sep-11 15:00N 54°45' W 142°06'0 0.3 1024.4 14.4
2014-Sep-11 14:00N 54°45' W 142°05'2 0.8 1024.2 14.4
2014-Sep-11 12:00N 54°46' W 142°04'2 1.8 1024.1 14.4
2014-Sep-11 11:00N 54°48' W 142°05'0 0.0 1023.8 14.4
2014-Sep-11 09:00N 54°48' W 142°05'3 0.9 1023.5 14.4
2014-Sep-11 06:00N 54°47' W 142°08'1 0.7 1023.1 14.4
2014-Sep-11 05:00N 54°46' W 142°10'2 1.6 1022.8 14.5
2014-Sep-11 04:00N 54°46' W 142°07'0 0.0 1022.3 14.5
2014-Sep-11 03:00N 54°46' W 142°07'1 1.1 1022.2 14.6
2014-Sep-11 02:00N 54°46' W 142°09'   1021.6 14.7
Track history (hours):
 
Tides and Currents Weather Stations Pressure Air Temp Water Temp Dewpoint Dewpoint Depression Visibility Wind Speed Wind Dir Waves Ship Positions

Drifting buoy 46762

Last reported at 2014-Sep-21 02:00 UTC. Time now 2014-Sep-21 04:09 UTC.
Position N 54°24' W 141°45'.

Barometer 1005.8 mb
Water temperature 14.4 ° C

Date/timePositionNaut miles runAvg speedWind from/ knotsBaromVisibWave heightAir tempDewpointWater temp
2014-Sep-21 02:00N 54°24' W 141°45'1 0.9 1005.8 14.4
2014-Sep-21 01:00N 54°24' W 141°44'1 0.8 1006.6 14.4
2014-Sep-21 00:00N 54°25' W 141°43'0 0.3 1006.7 14.4
2014-Sep-20 23:00N 54°25' W 141°43'2 2.0 1006.7 14.4
2014-Sep-20 22:00N 54°27' W 141°42'0 0.0 1006.4 14.3
2014-Sep-20 21:00N 54°27' W 141°42'1 1.2 1006.4 14.3
2014-Sep-20 20:00N 54°27' W 141°44'1 0.6 1006.6 14.2
2014-Sep-20 18:00N 54°26' W 141°45'0 0.0 1005.3 14.2
2014-Sep-20 17:00N 54°26' W 141°45'0 0.4 1005.1 14.2
2014-Sep-20 16:00N 54°26' W 141°45'0 0.3 1004.5 14.2
2014-Sep-20 15:00N 54°26' W 141°45'0 0.0 1004.0 14.2
2014-Sep-20 14:00N 54°26' W 141°45'0 0.4 1003.6 14.2
2014-Sep-20 13:00N 54°25' W 141°45'4 1.9 1003.3 14.2
2014-Sep-20 11:00N 54°29' W 141°42'0 0.0 1002.4 14.2
2014-Sep-20 10:00N 54°29' W 141°42'0 0.0 1002.2 14.2
2014-Sep-20 09:00N 54°29' W 141°42'0 0.0 1002.1 14.2
2014-Sep-20 08:00N 54°29' W 141°42'0 0.0 1002.0 14.2
2014-Sep-20 07:00N 54°29' W 141°42'1 1.3 1003.0 14.2
2014-Sep-20 06:00N 54°29' W 141°40'0 0.0 1003.3 14.2
2014-Sep-20 05:00N 54°29' W 141°40'2 2.3 1003.6 14.2
2014-Sep-20 04:00N 54°29' W 141°44'2 1.9 1004.4 14.2
2014-Sep-20 03:00N 54°28' W 141°42'0 0.0 1004.8 14.2
2014-Sep-20 02:00N 54°28' W 141°42'2 2.0 1005.1 14.2
2014-Sep-20 01:00N 54°27' W 141°44'2 1.7 1005.5 14.2
2014-Sep-20 00:00N 54°27' W 141°42'0 0.0 1005.6 14.2
2014-Sep-19 23:00N 54°27' W 141°42'1 0.8 1005.7 14.2
2014-Sep-19 22:00N 54°27' W 141°40'0 0.1 1005.8 14.3
2014-Sep-19 20:00N 54°27' W 141°40'1 1.5 1005.4 14.2
2014-Sep-19 19:00N 54°28' W 141°39'2 2.4 1004.5 14.2
2014-Sep-19 18:00N 54°30' W 141°41'0 0.0 1003.5 14.2
2014-Sep-19 17:00N 54°30' W 141°41'0 0.0 1003.0 14.2
2014-Sep-19 16:00N 54°30' W 141°41'1 1.3 1002.2 14.2
2014-Sep-19 15:00N 54°32' W 141°41'2 2.5 1001.1 14.2
2014-Sep-19 14:00N 54°30' W 141°43'1 0.8 1000.2 14.2
2014-Sep-19 13:00N 54°29' W 141°44'0 0.0 999.5 14.2
2014-Sep-19 12:00N 54°29' W 141°44'1 1.0 998.5 14.2
2014-Sep-19 11:00N 54°30' W 141°43'0 0.0 997.5 14.2
2014-Sep-19 08:00N 54°30' W 141°43'1 0.8 993.9 14.3
2014-Sep-19 07:00N 54°30' W 141°42'1 1.0 992.8 14.3
2014-Sep-19 06:00N 54°31' W 141°42'0 0.0 991.3 14.4
2014-Sep-19 05:00N 54°31' W 141°42'1 1.4 990.2 14.4
2014-Sep-19 04:00N 54°33' W 141°42'0 0.0 988.7 14.4
2014-Sep-19 03:00N 54°33' W 141°42'2 1.0 987.5 14.4
2014-Sep-19 01:00N 54°33' W 141°45'1 0.6 984.0 14.5
2014-Sep-19 00:00N 54°34' W 141°44'1 1.0 982.6 14.5
2014-Sep-18 23:00N 54°34' W 141°43'1 1.0 981.1 14.6
2014-Sep-18 22:00N 54°35' W 141°44'0 0.0 980.3 14.7
2014-Sep-18 21:00N 54°35' W 141°44'2 1.7 979.8 14.7
2014-Sep-18 20:00N 54°36' W 141°43'3 2.8 979.2 14.7
2014-Sep-18 19:00N 54°36' W 141°48'0 0.0 978.1 14.7
2014-Sep-18 18:00N 54°36' W 141°48'0 0.0 978.2 14.6
2014-Sep-18 17:00N 54°36' W 141°48'0 0.0 979.2 14.6
2014-Sep-18 16:00N 54°36' W 141°48'1 1.2 980.0 14.6
2014-Sep-18 15:00N 54°37' W 141°48'3 1.4 980.9 14.6
2014-Sep-18 13:00N 54°35' W 141°47'0 0.0 982.6 14.6
2014-Sep-18 12:00N 54°35' W 141°47'3 3.2 983.9 14.6
2014-Sep-18 11:00N 54°37' W 141°44'0 0.0 984.8 14.6
2014-Sep-18 09:00N 54°37' W 141°44'0 0.0 987.2 14.6
2014-Sep-18 08:00N 54°37' W 141°44'0 0.0 988.2 14.6
2014-Sep-18 07:00N 54°37' W 141°44'0 0.0 989.2 14.6
2014-Sep-18 06:00N 54°37' W 141°44'0 0.0 989.9 14.6
2014-Sep-18 05:00N 54°37' W 141°44'1 1.3 990.8 14.6
2014-Sep-18 04:00N 54°37' W 141°46'1 0.9 991.3 14.6
2014-Sep-18 03:00N 54°37' W 141°45'0 0.0 992.0 14.6
2014-Sep-18 02:00N 54°37' W 141°45'2 1.9 993.0 14.6
2014-Sep-18 01:00N 54°35' W 141°46'0 0.0 994.3 14.6
2014-Sep-18 00:00N 54°35' W 141°46'0 0.2 995.8 14.6
2014-Sep-17 23:00N 54°35' W 141°46'0 0.3 997.2 14.6
2014-Sep-17 22:00N 54°35' W 141°46'0 0.0 998.4 14.6
2014-Sep-17 21:00N 54°35' W 141°46'0 0.0 999.5 14.6
2014-Sep-17 20:00N 54°35' W 141°46'0 0.3 1000.5 14.6
2014-Sep-17 19:00N 54°35' W 141°45'0 0.0 1001.3 14.6
2014-Sep-17 18:00N 54°35' W 141°45'1 0.7 1002.0 14.6
2014-Sep-17 17:00N 54°36' W 141°46'0 0.0 1002.9 14.6
2014-Sep-17 16:00N 54°36' W 141°46'2 2.3 1003.6 14.6
2014-Sep-17 15:00N 54°37' W 141°50'0 0.0 1004.0 14.7
2014-Sep-17 14:00N 54°37' W 141°50'1 1.4 1004.7 14.7
2014-Sep-17 13:00N 54°36' W 141°48'0 0.0 1005.7 14.7
2014-Sep-17 12:00N 54°36' W 141°48'0 0.4 1006.9 14.7
2014-Sep-17 11:00N 54°35' W 141°48'0 0.0 1008.0 14.8
2014-Sep-17 10:00N 54°35' W 141°48'0 0.0 1008.8 14.8
2014-Sep-17 08:00N 54°35' W 141°48'1 1.4 1010.1 14.9
2014-Sep-17 07:00N 54°35' W 141°46'1 0.7 1010.7 14.9
2014-Sep-17 06:00N 54°35' W 141°47'3 1.3 1011.2 15.0
2014-Sep-17 04:00N 54°36' W 141°43'4 3.7 1011.8 15.1
2014-Sep-17 03:00N 54°37' W 141°49'1 0.7 1012.3 15.2
2014-Sep-17 01:00N 54°35' W 141°50'1 0.9 1013.2 15.2
2014-Sep-17 00:00N 54°36' W 141°49'0 0.3 1013.7 15.2
2014-Sep-16 23:00N 54°36' W 141°49'1 0.8 1014.0 15.1
2014-Sep-16 22:00N 54°36' W 141°50'1 1.5 1014.4 15.0
2014-Sep-16 21:00N 54°37' W 141°49'0 0.0 1014.5 14.9
2014-Sep-16 20:00N 54°37' W 141°49'2 1.7 1014.3 14.8
2014-Sep-16 19:00N 54°36' W 141°47'0 0.0 1014.1 14.7
2014-Sep-16 18:00N 54°36' W 141°47'0 0.3 1014.0 14.7
2014-Sep-16 17:00N 54°36' W 141°47'0 0.0 1013.8 14.7
2014-Sep-16 16:00N 54°36' W 141°47'1 1.2 1013.7 14.6
2014-Sep-16 15:00N 54°37' W 141°47'1 0.8 1013.7 14.6
2014-Sep-16 14:00N 54°38' W 141°49'1 0.7 1013.7 14.6
2014-Sep-16 13:00N 54°38' W 141°49'2 1.7 1013.7 14.6
2014-Sep-16 12:00N 54°38' W 141°47'0 0.0 1013.7 14.6
2014-Sep-16 10:00N 54°38' W 141°47'0 0.0 1014.0 14.7
2014-Sep-16 07:00N 54°38' W 141°47'1 1.1 1013.2 14.8
2014-Sep-16 06:00N 54°38' W 141°48'1 0.7 1013.2 14.8
2014-Sep-16 05:00N 54°39' W 141°47'1 1.1 1013.0 14.8
2014-Sep-16 04:00N 54°39' W 141°49'0 0.1 1012.6 14.8
2014-Sep-16 03:00N 54°39' W 141°49'0 0.3 1012.4 14.8
2014-Sep-16 02:00N 54°39' W 141°50'1 0.5 1012.3 14.9
2014-Sep-16 00:00N 54°38' W 141°51'1 1.3 1012.0 14.9
2014-Sep-15 23:00N 54°38' W 141°49'1 0.5 1012.0 14.8
2014-Sep-15 22:00N 54°38' W 141°48'2 0.7 1012.3 14.9
2014-Sep-15 19:00N 54°40' W 141°49'0 0.0 1011.6 14.6
2014-Sep-15 18:00N 54°40' W 141°49'0 0.2 1011.2 14.6
2014-Sep-15 16:00N 54°40' W 141°49'0 0.0 1010.9 14.5
2014-Sep-15 15:00N 54°40' W 141°49'1 1.4 1010.7 14.5
2014-Sep-15 14:00N 54°40' W 141°51'1 0.7 1010.6 14.5
2014-Sep-15 13:00N 54°40' W 141°51'1 0.8 1010.4 14.6
2014-Sep-15 12:00N 54°39' W 141°51'0 0.0 1010.7 14.5
2014-Sep-15 10:00N 54°39' W 141°51'3 0.9 1011.0 14.6
2014-Sep-15 07:00N 54°38' W 141°46'2 2.4 1010.4 14.6
2014-Sep-15 06:00N 54°40' W 141°49'1 0.5 1010.3 14.6
2014-Sep-15 04:00N 54°41' W 141°49'2 1.0 1009.3 14.6
2014-Sep-15 02:00N 54°41' W 141°52'1 0.4 1008.4 14.7
2014-Sep-15 00:00N 54°40' W 141°53'0 0.5 1009.0 14.6
2014-Sep-14 23:00N 54°40' W 141°53'0 0.0 1009.7 14.6
2014-Sep-14 22:00N 54°40' W 141°52'0 0.0 1010.6 14.6
2014-Sep-14 21:00N 54°40' W 141°52'2 1.7 1011.1 14.6
2014-Sep-14 20:00N 54°40' W 141°50'1 0.5 1011.1 14.6
2014-Sep-14 18:00N 54°40' W 141°51'1 0.6 1011.4 14.6
2014-Sep-14 16:00N 54°41' W 141°51'1 1.0 1011.6 14.6
2014-Sep-14 15:00N 54°41' W 141°53'1 1.3 1011.4 14.6
2014-Sep-14 14:00N 54°41' W 141°51'1 1.1 1011.5 14.6
2014-Sep-14 13:00N 54°39' W 141°51'3 2.7 1011.8 14.6
2014-Sep-14 12:00N 54°40' W 141°47'0 0.0 1012.2 14.6
2014-Sep-14 11:00N 54°40' W 141°47'3 3.1 1012.3 14.6
2014-Sep-14 10:00N 54°41' W 141°52'0 0.0 1012.7 14.6
2014-Sep-14 08:00N 54°41' W 141°52'0 0.0 1012.9 14.6
2014-Sep-14 07:00N 54°41' W 141°52'1 0.7 1013.1 14.6
2014-Sep-14 06:00N 54°41' W 141°53'2 2.3 1013.4 14.6
2014-Sep-14 05:00N 54°40' W 141°50'0 0.0 1013.3 14.6
2014-Sep-14 04:00N 54°40' W 141°50'3 2.8 1013.5 14.6
2014-Sep-14 03:00N 54°40' W 141°54'3 3.3 1014.1 14.6
2014-Sep-14 02:00N 54°42' W 141°50'0 0.0 1014.5 14.6
2014-Sep-14 01:00N 54°42' W 141°50'2 2.0 1015.0 14.6
2014-Sep-14 00:00N 54°42' W 141°53'1 0.6 1015.0 14.6
2014-Sep-13 23:00N 54°41' W 141°53'2 1.7 1015.6 14.6
2014-Sep-13 22:00N 54°43' W 141°54'1 1.4 1016.1 14.6
2014-Sep-13 21:00N 54°42' W 141°56'0 0.1 1016.6 14.6
2014-Sep-13 19:00N 54°42' W 141°56'0 0.0 1016.6 14.5
2014-Sep-13 18:00N 54°42' W 141°56'0 0.0 1016.7 14.5
2014-Sep-13 17:00N 54°42' W 141°56'0 0.0 1017.1 14.5
2014-Sep-13 16:00N 54°42' W 141°56'0 0.0 1017.3 14.5
2014-Sep-13 15:00N 54°42' W 141°56'0 0.2 1017.4 14.5
2014-Sep-13 14:00N 54°42' W 141°56'0 0.4 1017.7 14.4
2014-Sep-13 13:00N 54°42' W 141°55'2 0.5 1017.9 14.4
2014-Sep-13 10:00N 54°43' W 141°57'0 0.0 1019.6 14.5
2014-Sep-13 08:00N 54°43' W 141°57'0 0.5 1019.8 14.5
2014-Sep-13 07:00N 54°43' W 141°57'1 0.3 1020.0 14.5
2014-Sep-13 04:00N 54°43' W 141°59'1 0.3 1020.3 14.5
2014-Sep-13 02:00N 54°44' W 141°58'2 1.9 1020.7 14.5
2014-Sep-13 01:00N 54°42' W 141°59'2 1.6 1021.2 14.5
2014-Sep-13 00:00N 54°43' W 141°60'1 0.6 1021.6 14.5
2014-Sep-12 23:00N 54°43' W 141°59'0 0.4 1021.9 14.5
2014-Sep-12 22:00N 54°43' W 141°59'1 1.0 1022.2 14.5
2014-Sep-12 21:00N 54°43' W 141°58'1 0.5 1022.4 14.5
2014-Sep-12 19:00N 54°44' W 141°59'0 0.0 1022.8 14.5
2014-Sep-12 18:00N 54°44' W 141°59'0 0.2 1023.0 14.4
2014-Sep-12 17:00N 54°44' W 141°59'0 0.1 1023.2 14.4
2014-Sep-12 16:00N 54°44' W 141°59'0 0.0 1023.1 14.4
2014-Sep-12 15:00N 54°44' W 141°59'1 0.7 1023.2 14.4
2014-Sep-12 14:00N 54°44' W 141°57'3 2.6 1023.1 14.4
2014-Sep-12 13:00N 54°45' W 142°02'1 1.3 1023.2 14.4
2014-Sep-12 12:00N 54°44' W 141°60'1 0.6 1023.4 14.4
2014-Sep-12 11:00N 54°44' W 142°00'0 0.0 1023.5 14.4
2014-Sep-12 09:00N 54°44' W 142°00'0 0.0 1024.0 14.4
2014-Sep-12 08:00N 54°44' W 142°00'0 0.0 1024.1 14.5
2014-Sep-12 07:00N 54°44' W 142°00'1 0.7 1024.1 14.5
2014-Sep-12 05:00N 54°45' W 142°02'0 0.0 1023.9 14.5
2014-Sep-12 04:00N 54°45' W 142°02'1 0.7 1023.7 14.5
2014-Sep-12 03:00N 54°44' W 142°03'1 0.8 1023.6 14.5
2014-Sep-12 02:00N 54°44' W 142°02'0 0.0 1023.5 14.6
2014-Sep-12 01:00N 54°44' W 142°02'2 1.6 1023.5 14.6
2014-Sep-12 00:00N 54°45' W 142°04'0 0.0 1023.6 14.5
2014-Sep-11 23:00N 54°45' W 142°04'0 0.4 1023.8 14.5
2014-Sep-11 22:00N 54°45' W 142°05'0 0.1 1023.7 14.5
2014-Sep-11 21:00N 54°45' W 142°05'1 1.2 1024.0 14.5
2014-Sep-11 20:00N 54°45' W 142°03'1 1.4 1024.8 14.4
2014-Sep-11 19:00N 54°45' W 142°05'0 0.0 1024.6 14.4
2014-Sep-11 18:00N 54°45' W 142°05'0 0.2 1024.6 14.4
2014-Sep-11 16:00N 54°45' W 142°06'0 0.2 1024.5 14.4
2014-Sep-11 15:00N 54°45' W 142°06'0 0.3 1024.4 14.4
2014-Sep-11 14:00N 54°45' W 142°05'2 0.8 1024.2 14.4
2014-Sep-11 12:00N 54°46' W 142°04'2 1.8 1024.1 14.4
2014-Sep-11 11:00N 54°48' W 142°05'0 0.0 1023.8 14.4
2014-Sep-11 09:00N 54°48' W 142°05'3 0.9 1023.5 14.4
2014-Sep-11 06:00N 54°47' W 142°08'1 0.7 1023.1 14.4
2014-Sep-11 05:00N 54°46' W 142°10'2 1.6 1022.8 14.5
2014-Sep-11 04:00N 54°46' W 142°07'0 0.0 1022.3 14.5
2014-Sep-11 03:00N 54°46' W 142°07'1 1.1 1022.2 14.6
2014-Sep-11 02:00N 54°46' W 142°09'   1021.6 14.7

Dump ship's entire track history